createdAt,value
2017-10-25T00:00:20.044Z,13.70
2017-10-25T00:02:47.524Z,13.70
2017-10-25T00:05:15.079Z,13.70
2017-10-25T00:07:42.544Z,13.70
2017-10-25T00:10:10.001Z,13.70
2017-10-25T00:12:37.455Z,13.80
2017-10-25T00:15:05.531Z,13.70
2017-10-25T00:17:33.003Z,13.70
2017-10-25T00:20:00.449Z,13.70
2017-10-25T00:22:27.944Z,13.70
2017-10-25T00:24:55.396Z,13.70
2017-10-25T00:27:22.877Z,13.80
2017-10-25T00:29:50.353Z,13.80
2017-10-25T00:32:17.818Z,13.70
2017-10-25T00:34:45.300Z,13.80
2017-10-25T00:37:12.783Z,13.70
2017-10-25T00:39:40.251Z,13.70
2017-10-25T00:42:09.042Z,13.70
2017-10-25T00:44:36.524Z,13.80
2017-10-25T00:47:04.739Z,13.90
2017-10-25T00:49:32.204Z,13.80
2017-10-25T00:51:59.651Z,13.80
2017-10-25T00:54:27.888Z,13.80
2017-10-25T00:56:55.346Z,13.80
2017-10-25T00:59:23.021Z,13.80
2017-10-25T01:01:50.573Z,13.80
2017-10-25T01:04:18.794Z,13.90
2017-10-25T01:06:46.289Z,13.80
2017-10-25T01:09:13.754Z,13.90
2017-10-25T01:11:41.212Z,13.90
2017-10-25T01:14:08.676Z,13.90
2017-10-25T01:16:36.140Z,13.90
2017-10-25T01:19:04.393Z,13.90
2017-10-25T01:21:31.849Z,13.90
2017-10-25T01:23:59.360Z,13.90
2017-10-25T01:26:26.809Z,14.00
2017-10-25T01:28:54.290Z,14.00
2017-10-25T01:31:21.756Z,14.00
2017-10-25T01:33:49.245Z,13.90
2017-10-25T01:36:16.795Z,13.90
2017-10-25T01:38:44.240Z,14.00
2017-10-25T01:41:12.496Z,14.00
2017-10-25T01:43:39.964Z,14.00
2017-10-25T01:46:07.424Z,14.00
2017-10-25T01:48:34.892Z,14.00
2017-10-25T01:51:02.435Z,14.00
2017-10-25T01:53:30.684Z,13.90
2017-10-25T01:55:58.444Z,13.90
2017-10-25T01:58:25.916Z,14.00
2017-10-25T02:00:53.477Z,14.00
2017-10-25T02:03:20.959Z,13.90
2017-10-25T02:05:48.432Z,13.90
2017-10-25T02:08:15.937Z,13.90
2017-10-25T02:10:43.423Z,13.90
2017-10-25T02:13:10.889Z,13.80
2017-10-25T02:15:38.375Z,13.90
2017-10-25T02:18:05.831Z,13.90
2017-10-25T02:20:33.296Z,13.90
2017-10-25T02:23:01.633Z,13.90
2017-10-25T02:25:29.112Z,13.90
2017-10-25T02:27:56.592Z,13.90
2017-10-25T02:30:24.043Z,14.00
2017-10-25T02:32:51.525Z,14.00
2017-10-25T02:35:19.104Z,14.00
2017-10-25T02:37:46.552Z,14.00
2017-10-25T02:40:14.037Z,14.00
2017-10-25T02:42:41.484Z,14.00
2017-10-25T02:45:09.005Z,14.00
2017-10-25T02:47:37.358Z,14.00
2017-10-25T02:50:04.845Z,14.00
2017-10-25T02:52:32.341Z,14.00
2017-10-25T02:54:59.796Z,14.00
2017-10-25T02:57:27.280Z,14.00
2017-10-25T02:59:54.770Z,14.00
2017-10-25T03:02:22.242Z,14.00
2017-10-25T03:04:49.722Z,13.90
2017-10-25T03:07:17.186Z,13.90
2017-10-25T03:09:44.752Z,14.00
2017-10-25T03:12:12.215Z,14.00
2017-10-25T03:14:39.710Z,14.00
2017-10-25T03:17:07.168Z,13.90
2017-10-25T03:19:34.635Z,13.90
2017-10-25T03:22:02.183Z,14.00
2017-10-25T03:24:30.420Z,13.90
2017-10-25T03:27:01.922Z,13.90
2017-10-25T03:29:29.408Z,13.90
2017-10-25T03:31:57.636Z,13.90
2017-10-25T03:34:25.239Z,13.90
2017-10-25T03:36:52.699Z,13.90
2017-10-25T03:39:20.855Z,13.90
2017-10-25T03:41:48.319Z,13.80
2017-10-25T03:44:16.570Z,13.90
2017-10-25T03:46:44.032Z,13.90
2017-10-25T03:49:11.504Z,13.90
2017-10-25T03:51:39.065Z,13.90
2017-10-25T03:54:06.549Z,13.90
2017-10-25T03:56:34.026Z,13.90
2017-10-25T03:59:01.478Z,13.90
2017-10-25T04:01:28.959Z,13.90
2017-10-25T04:03:57.123Z,13.90
2017-10-25T04:06:25.950Z,14.00
2017-10-25T04:08:54.191Z,14.00
2017-10-25T04:11:21.656Z,13.90
2017-10-25T04:13:49.132Z,14.00
2017-10-25T04:16:16.651Z,14.00
2017-10-25T04:18:44.945Z,14.00
2017-10-25T04:21:13.200Z,13.90
2017-10-25T04:23:40.663Z,13.90
2017-10-25T04:26:08.140Z,14.00
2017-10-25T04:28:36.432Z,13.90
2017-10-25T04:31:03.916Z,14.00
2017-10-25T04:33:31.505Z,13.90
2017-10-25T04:35:58.994Z,14.00
2017-10-25T04:38:26.465Z,14.00
2017-10-25T04:40:53.938Z,14.00
2017-10-25T04:43:21.516Z,14.00
2017-10-25T04:45:48.970Z,14.10
2017-10-25T04:48:16.479Z,14.10
2017-10-25T04:50:43.968Z,14.10
2017-10-25T04:53:12.205Z,14.10
2017-10-25T04:55:39.667Z,14.10
2017-10-25T04:58:07.176Z,14.20
2017-10-25T05:00:34.659Z,14.20
2017-10-25T05:03:02.120Z,14.30
2017-10-25T05:05:29.628Z,14.20
2017-10-25T05:07:57.276Z,14.20
2017-10-25T05:10:25.641Z,14.30
2017-10-25T05:12:53.133Z,14.10
2017-10-25T05:15:20.628Z,14.20
2017-10-25T05:17:48.107Z,14.20
2017-10-25T05:20:15.585Z,14.30
2017-10-25T05:22:43.026Z,14.30
2017-10-25T05:25:10.498Z,14.30
2017-10-25T05:27:38.000Z,14.30
2017-10-25T05:30:05.501Z,14.30
2017-10-25T05:32:32.973Z,14.30
2017-10-25T05:35:00.567Z,14.20
2017-10-25T05:37:28.069Z,14.20
2017-10-25T05:39:55.537Z,14.20
2017-10-25T05:42:23.001Z,14.20
2017-10-25T05:44:51.248Z,14.20
2017-10-25T05:47:18.705Z,14.30
2017-10-25T05:49:46.192Z,14.20
2017-10-25T05:52:13.649Z,14.20
2017-10-25T05:54:41.157Z,14.20
2017-10-25T05:57:08.628Z,14.20
2017-10-25T05:59:36.109Z,14.20
2017-10-25T06:02:03.564Z,14.20
2017-10-25T06:04:31.072Z,14.30
2017-10-25T06:06:58.552Z,14.30
2017-10-25T06:09:26.017Z,14.20
2017-10-25T06:11:53.496Z,14.30
2017-10-25T06:14:20.940Z,14.20
2017-10-25T06:16:48.440Z,14.20
2017-10-25T06:19:15.888Z,14.20
2017-10-25T06:21:43.368Z,14.30
2017-10-25T06:24:10.858Z,14.30
2017-10-25T06:26:38.307Z,14.30
2017-10-25T06:29:05.769Z,14.40
2017-10-25T06:31:33.217Z,14.40
2017-10-25T06:34:01.493Z,14.50
2017-10-25T06:36:28.956Z,14.40
2017-10-25T06:38:56.416Z,14.40
2017-10-25T06:41:23.874Z,14.50
2017-10-25T06:43:51.459Z,14.50
2017-10-25T06:46:18.954Z,14.50
2017-10-25T06:48:46.406Z,14.50
2017-10-25T06:51:14.555Z,14.50
2017-10-25T06:53:42.792Z,14.40
2017-10-25T06:56:11.016Z,14.40
2017-10-25T06:58:38.460Z,14.40
2017-10-25T07:01:06.642Z,14.40
2017-10-25T07:03:34.095Z,14.40
2017-10-25T07:06:01.544Z,14.50
2017-10-25T07:08:29.783Z,14.40
2017-10-25T07:10:57.284Z,14.40
2017-10-25T07:13:24.756Z,14.50
2017-10-25T07:15:52.208Z,14.50
2017-10-25T07:18:19.671Z,14.40
2017-10-25T07:20:47.124Z,14.40
2017-10-25T07:23:15.365Z,14.50
2017-10-25T07:25:42.887Z,14.50
2017-10-25T07:28:11.113Z,14.60
2017-10-25T07:30:38.577Z,14.50
2017-10-25T07:33:06.020Z,14.50
2017-10-25T07:35:35.121Z,14.60
2017-10-25T07:38:02.552Z,14.60
2017-10-25T07:40:30.030Z,14.70
2017-10-25T07:42:57.518Z,14.60
2017-10-25T07:45:25.015Z,14.60
2017-10-25T07:47:52.468Z,14.60
2017-10-25T07:50:19.945Z,14.60
2017-10-25T07:52:47.448Z,14.70
2017-10-25T07:55:15.048Z,14.70
2017-10-25T07:57:42.649Z,14.70
2017-10-25T08:00:10.248Z,14.70
2017-10-25T08:02:38.607Z,14.70
2017-10-25T08:05:06.126Z,14.60
2017-10-25T08:07:33.602Z,14.60
2017-10-25T08:10:01.067Z,14.60
2017-10-25T08:12:28.585Z,14.50
2017-10-25T08:14:57.234Z,14.60
2017-10-25T08:17:24.800Z,14.60
2017-10-25T08:19:52.386Z,14.60
2017-10-25T08:22:20.698Z,14.60
2017-10-25T08:24:49.160Z,14.60
2017-10-25T08:27:16.669Z,14.60
2017-10-25T08:29:44.129Z,14.60
2017-10-25T08:32:11.576Z,14.60
2017-10-25T08:34:39.081Z,14.60
2017-10-25T08:37:06.539Z,14.60
2017-10-25T08:39:34.827Z,14.60
2017-10-25T08:42:02.991Z,14.60
2017-10-25T08:44:30.520Z,14.50
2017-10-25T08:46:57.998Z,14.60
2017-10-25T08:49:25.476Z,14.60
2017-10-25T08:51:52.980Z,14.60
2017-10-25T08:54:20.476Z,14.60
2017-10-25T08:56:51.633Z,14.70
2017-10-25T08:59:19.080Z,14.70
2017-10-25T09:01:46.649Z,14.80
2017-10-25T09:04:14.088Z,14.80
2017-10-25T09:06:41.584Z,15.00
2017-10-25T09:09:09.028Z,15.00
2017-10-25T09:11:36.504Z,15.10
2017-10-25T09:14:04.747Z,15.50
2017-10-25T09:16:32.215Z,15.40
2017-10-25T09:18:59.683Z,15.90
2017-10-25T09:21:27.140Z,16.10
2017-10-25T09:23:54.608Z,16.20
2017-10-25T09:26:22.063Z,16.20
2017-10-25T09:28:50.313Z,16.10
2017-10-25T09:31:18.623Z,16.10
2017-10-25T09:33:46.085Z,16.00
2017-10-25T09:36:13.584Z,16.20
2017-10-25T09:38:41.037Z,16.30
2017-10-25T09:41:08.501Z,16.40
2017-10-25T09:43:35.956Z,16.40
2017-10-25T09:46:03.431Z,16.40
2017-10-25T09:48:30.932Z,16.20
2017-10-25T09:50:58.398Z,16.40
2017-10-25T09:53:25.851Z,16.50
2017-10-25T09:55:53.354Z,16.50
2017-10-25T09:58:20.815Z,16.70
2017-10-25T10:00:48.284Z,16.80
2017-10-25T10:03:15.730Z,16.90
2017-10-25T10:05:43.956Z,17.20
2017-10-25T10:08:11.409Z,17.10
2017-10-25T10:10:39.440Z,17.20
2017-10-25T10:13:06.895Z,17.50
2017-10-25T10:15:35.140Z,17.90
2017-10-25T10:18:04.241Z,18.00
2017-10-25T10:20:31.692Z,17.90
2017-10-25T10:22:59.152Z,18.20
2017-10-25T10:25:26.593Z,17.80
2017-10-25T10:27:54.152Z,17.70
2017-10-25T10:30:22.366Z,17.70
2017-10-25T10:32:49.832Z,17.70
2017-10-25T10:35:18.074Z,17.50
2017-10-25T10:37:45.561Z,17.50
2017-10-25T10:40:13.083Z,17.40
2017-10-25T10:42:40.605Z,17.30
2017-10-25T10:45:08.092Z,17.20
2017-10-25T10:47:35.579Z,17.10
2017-10-25T10:50:03.104Z,17.10
2017-10-25T10:52:30.648Z,17.10
2017-10-25T10:54:58.163Z,17.30
2017-10-25T10:57:25.619Z,17.50
2017-10-25T10:59:53.118Z,17.60
2017-10-25T11:02:20.712Z,17.50
2017-10-25T11:04:48.171Z,17.50
2017-10-25T11:07:15.653Z,17.50
2017-10-25T11:09:44.431Z,17.60
2017-10-25T11:12:11.948Z,17.60
2017-10-25T11:14:39.397Z,17.70
2017-10-25T11:17:07.620Z,18.10
2017-10-25T11:19:35.121Z,18.10
2017-10-25T11:22:03.402Z,18.70
2017-10-25T11:24:30.860Z,18.60
2017-10-25T11:26:58.364Z,19.00
2017-10-25T11:29:25.821Z,19.20
2017-10-25T11:31:53.276Z,19.60
2017-10-25T11:34:20.818Z,19.90
2017-10-25T11:36:48.275Z,19.80
2017-10-25T11:39:16.516Z,19.60
2017-10-25T11:41:43.988Z,19.50
2017-10-25T11:44:11.458Z,19.50
2017-10-25T11:46:38.922Z,19.30
2017-10-25T11:49:07.164Z,19.10
2017-10-25T11:51:34.631Z,19.10
2017-10-25T11:54:02.076Z,19.00
2017-10-25T11:56:30.376Z,19.00
2017-10-25T11:58:59.058Z,19.00
2017-10-25T12:01:26.530Z,18.70
2017-10-25T12:03:53.993Z,19.00
2017-10-25T12:06:21.488Z,18.90
2017-10-25T12:08:49.740Z,18.50
2017-10-25T12:11:17.214Z,18.50
2017-10-25T12:13:44.730Z,18.40
2017-10-25T12:16:12.170Z,18.40
2017-10-25T12:18:40.431Z,18.50
2017-10-25T12:21:08.219Z,18.40
2017-10-25T12:23:35.663Z,18.50
2017-10-25T12:26:03.148Z,18.60
2017-10-25T12:28:30.619Z,18.60
2017-10-25T12:30:58.055Z,18.70
2017-10-25T12:33:25.508Z,18.90
2017-10-25T12:35:53.743Z,18.90
2017-10-25T12:38:21.223Z,18.80
2017-10-25T12:40:48.672Z,19.00
2017-10-25T12:43:16.904Z,19.00
2017-10-25T12:45:44.410Z,19.00
2017-10-25T12:48:11.878Z,18.90
2017-10-25T12:50:39.351Z,18.90
2017-10-25T12:53:06.808Z,19.50
2017-10-25T12:55:34.272Z,20.70
2017-10-25T12:58:01.717Z,21.90
2017-10-25T13:00:29.951Z,23.90
2017-10-25T13:03:01.073Z,23.90
2017-10-25T13:05:28.538Z,23.10
2017-10-25T13:07:56.796Z,21.60
2017-10-25T13:10:36.543Z,21.50
2017-10-25T13:13:06.065Z,21.40
2017-10-25T13:18:33.753Z,21.40
2017-10-25T13:21:01.303Z,20.90
2017-10-25T13:23:28.816Z,20.30
2017-10-25T13:25:57.117Z,20.00
2017-10-25T13:28:25.361Z,20.10
2017-10-25T13:30:52.837Z,20.00
2017-10-25T13:33:21.074Z,20.50
2017-10-25T13:35:50.496Z,20.50
2017-10-25T13:38:18.108Z,20.40
2017-10-25T13:40:46.402Z,20.40
2017-10-25T13:43:14.024Z,20.80
2017-10-25T13:45:46.105Z,21.30
2017-10-25T13:48:14.450Z,21.20
2017-10-25T13:56:45.498Z,21.90
2017-10-25T13:59:13.023Z,21.90
2017-10-25T14:01:41.265Z,22.20
2017-10-25T14:04:08.701Z,22.10
2017-10-25T14:06:36.927Z,22.10
2017-10-25T14:09:04.409Z,22.10
2017-10-25T14:11:31.856Z,22.20
2017-10-25T14:13:59.313Z,21.70
2017-10-25T14:16:27.538Z,21.30
2017-10-25T14:18:55.115Z,21.30
2017-10-25T14:21:22.587Z,21.10
2017-10-25T14:23:50.049Z,21.10
2017-10-25T14:26:29.590Z,20.90
2017-10-25T14:28:57.076Z,20.90
2017-10-25T14:31:24.528Z,20.80
2017-10-25T14:33:52.744Z,20.60
2017-10-25T14:36:20.204Z,20.60
2017-10-25T14:38:48.437Z,20.70
2017-10-25T14:41:15.908Z,20.70
2017-10-25T14:43:43.437Z,20.70
2017-10-25T14:46:12.672Z,20.30
2017-10-25T14:48:40.126Z,20.20
2017-10-25T14:51:08.369Z,19.90
2017-10-25T14:53:35.819Z,19.90
2017-10-25T14:56:03.289Z,19.70
2017-10-25T14:58:31.784Z,19.60
2017-10-25T15:01:00.001Z,19.50
2017-10-25T15:03:28.221Z,19.30
2017-10-25T15:05:55.693Z,19.40
2017-10-25T15:08:23.147Z,19.30
2017-10-25T15:10:50.612Z,19.10
2017-10-25T15:13:18.096Z,19.00
2017-10-25T15:15:45.565Z,19.00
2017-10-25T15:18:13.026Z,18.90
2017-10-25T15:20:40.518Z,18.90
2017-10-25T15:23:08.722Z,18.80
2017-10-25T15:25:36.216Z,18.80
2017-10-25T15:28:03.675Z,18.70
2017-10-25T15:30:31.157Z,18.70
2017-10-25T15:32:58.608Z,18.70
2017-10-25T15:35:26.064Z,18.80
2017-10-25T15:37:53.528Z,18.70
2017-10-25T15:40:21.762Z,18.50
2017-10-25T15:42:49.256Z,18.50
2017-10-25T15:45:16.738Z,18.50
2017-10-25T15:47:44.202Z,18.40
2017-10-25T15:50:11.650Z,18.30
2017-10-25T15:52:39.105Z,18.30
2017-10-25T15:55:07.048Z,18.20
2017-10-25T15:57:34.515Z,18.10
2017-10-25T16:00:01.978Z,18.10
2017-10-25T16:02:29.444Z,18.10
2017-10-25T16:04:57.013Z,18.00
2017-10-25T16:07:24.465Z,17.90
2017-10-25T16:09:51.944Z,17.80
2017-10-25T16:12:19.401Z,17.80
2017-10-25T16:14:47.618Z,17.60
2017-10-25T16:17:15.099Z,17.60
2017-10-25T16:19:42.568Z,17.50
2017-10-25T16:22:10.049Z,17.50
2017-10-25T16:24:37.500Z,17.50
2017-10-25T16:27:05.740Z,17.30
2017-10-25T16:29:33.743Z,17.30
2017-10-25T16:32:01.213Z,17.30
2017-10-25T16:34:28.720Z,17.20
2017-10-25T16:36:56.189Z,17.10
2017-10-25T16:39:23.652Z,17.10
2017-10-25T16:41:51.101Z,17.00
2017-10-25T16:44:18.572Z,16.90
2017-10-25T16:46:46.045Z,16.90
2017-10-25T16:49:14.268Z,16.80
2017-10-25T16:51:41.710Z,16.70
2017-10-25T16:54:09.257Z,16.70
2017-10-25T16:56:38.045Z,16.70
2017-10-25T16:59:06.283Z,16.60
2017-10-25T17:01:33.751Z,16.60
2017-10-25T17:04:01.210Z,16.50
2017-10-25T17:06:29.469Z,16.40
2017-10-25T17:08:56.909Z,16.40
2017-10-25T17:11:24.396Z,16.30
2017-10-25T17:13:52.617Z,16.20
2017-10-25T17:16:20.090Z,16.20
2017-10-25T17:18:47.530Z,16.20
2017-10-25T17:21:15.072Z,16.10
2017-10-25T17:23:42.499Z,16.00
2017-10-25T17:26:09.976Z,16.00
2017-10-25T17:28:37.420Z,16.00
2017-10-25T17:31:04.878Z,16.00
2017-10-25T17:33:32.346Z,16.10
2017-10-25T17:35:59.787Z,16.10
2017-10-25T17:38:27.286Z,16.10
2017-10-25T17:40:55.504Z,16.00
2017-10-25T17:43:22.982Z,16.00
2017-10-25T17:45:50.400Z,16.00
2017-10-25T17:48:17.871Z,15.90
2017-10-25T17:50:45.336Z,15.80
2017-10-25T17:53:12.801Z,15.80
2017-10-25T17:55:41.105Z,15.70
2017-10-25T17:58:08.536Z,15.70
2017-10-25T18:00:36.004Z,15.70
2017-10-25T18:03:03.524Z,15.70
2017-10-25T18:05:30.999Z,15.60
2017-10-25T18:07:58.453Z,15.60
2017-10-25T18:10:26.008Z,15.60
2017-10-25T18:12:54.217Z,15.50
2017-10-25T18:15:22.629Z,15.50
2017-10-25T18:17:50.112Z,15.40
2017-10-25T18:20:17.653Z,15.40
2017-10-25T18:22:45.117Z,15.40
2017-10-25T18:25:12.559Z,15.40
2017-10-25T18:27:40.024Z,15.30
2017-10-25T18:30:07.510Z,15.30
2017-10-25T18:32:35.024Z,15.30
2017-10-25T18:35:03.248Z,15.20
2017-10-25T18:37:30.696Z,15.20
2017-10-25T18:39:58.149Z,15.20
2017-10-25T18:42:26.363Z,15.20
2017-10-25T18:44:53.818Z,15.10
2017-10-25T18:47:21.281Z,15.10
2017-10-25T18:49:49.497Z,15.00
2017-10-25T18:52:16.972Z,15.00
2017-10-25T18:54:44.408Z,15.00
2017-10-25T18:57:11.873Z,15.00
2017-10-25T18:59:39.350Z,14.90
2017-10-25T19:02:06.830Z,14.90
2017-10-25T19:04:34.271Z,14.90
2017-10-25T19:07:01.736Z,14.90
2017-10-25T19:09:29.229Z,14.80
2017-10-25T19:11:56.675Z,14.80
2017-10-25T19:14:24.160Z,14.70
2017-10-25T19:16:51.628Z,14.70
2017-10-25T19:19:19.076Z,14.60
2017-10-25T19:21:47.307Z,14.60
2017-10-25T19:24:14.783Z,14.60
2017-10-25T19:26:42.266Z,14.50
2017-10-25T19:29:09.732Z,14.50
2017-10-25T19:31:37.226Z,14.50
2017-10-25T19:34:04.670Z,14.60
2017-10-25T19:36:32.169Z,14.60
2017-10-25T19:38:59.675Z,14.50
2017-10-25T19:41:27.172Z,14.50
2017-10-25T19:43:55.405Z,14.50
2017-10-25T19:46:22.892Z,14.50
2017-10-25T19:48:51.213Z,14.40
2017-10-25T19:51:18.699Z,14.50
2017-10-25T19:53:46.167Z,14.50
2017-10-25T19:56:13.674Z,14.50
2017-10-25T19:58:41.129Z,14.50
2017-10-25T20:01:09.334Z,14.40
2017-10-25T20:03:36.824Z,14.40
2017-10-25T20:06:05.134Z,14.50
2017-10-25T20:08:32.586Z,14.50
2017-10-25T20:11:00.063Z,14.40
2017-10-25T20:13:27.539Z,14.40
2017-10-25T20:15:55.013Z,14.60
2017-10-25T20:18:22.571Z,14.60
2017-10-25T20:20:50.157Z,14.50
2017-10-25T20:23:18.360Z,14.40
2017-10-25T20:25:45.818Z,14.40
2017-10-25T20:28:14.036Z,14.40
2017-10-25T20:30:41.498Z,14.40
2017-10-25T20:33:08.964Z,14.40
2017-10-25T20:35:37.159Z,14.40
2017-10-25T20:38:05.391Z,14.30
2017-10-25T20:40:32.864Z,14.30
2017-10-25T20:43:00.358Z,14.40
2017-10-25T20:45:27.891Z,14.40
2017-10-25T20:47:55.365Z,14.40
2017-10-25T20:50:23.746Z,14.40
2017-10-25T20:52:51.987Z,14.30
2017-10-25T20:55:19.451Z,14.30
2017-10-25T20:57:47.766Z,14.30
2017-10-25T21:00:15.244Z,14.20
2017-10-25T21:02:42.721Z,14.20
2017-10-25T21:05:10.173Z,14.30
2017-10-25T21:07:37.648Z,14.30
2017-10-25T21:10:05.115Z,14.30
2017-10-25T21:12:32.576Z,14.10
2017-10-25T21:15:00.050Z,14.00
2017-10-25T21:17:28.311Z,14.00
2017-10-25T21:19:56.549Z,13.90
2017-10-25T21:22:24.022Z,13.90
2017-10-25T21:24:51.486Z,13.90
2017-10-25T21:27:18.978Z,14.00
2017-10-25T21:29:46.451Z,14.00
2017-10-25T21:32:13.912Z,13.90
2017-10-25T21:34:41.361Z,13.90
2017-10-25T21:37:08.829Z,13.90
2017-10-25T21:39:37.071Z,13.70
2017-10-25T21:42:05.288Z,13.80
2017-10-25T21:44:32.755Z,13.80
2017-10-25T21:47:00.213Z,13.80
2017-10-25T21:49:27.717Z,13.70
2017-10-25T21:51:55.168Z,13.60
2017-10-25T21:54:22.622Z,13.60
2017-10-25T21:56:50.093Z,13.50
2017-10-25T21:59:17.661Z,13.50
2017-10-25T22:01:45.137Z,13.40
2017-10-25T22:04:12.630Z,13.30
2017-10-25T22:06:40.195Z,13.20
2017-10-25T22:09:08.402Z,13.20
2017-10-25T22:11:35.893Z,13.20
2017-10-25T22:14:03.350Z,13.20
2017-10-25T22:16:30.831Z,13.10
2017-10-25T22:18:58.309Z,13.10
2017-10-25T22:21:25.796Z,13.00
2017-10-25T22:23:53.303Z,13.00
2017-10-25T22:26:20.777Z,13.00
2017-10-25T22:28:50.179Z,13.00
2017-10-25T22:31:17.629Z,13.00
2017-10-25T22:33:45.916Z,13.00
2017-10-25T22:36:13.480Z,12.90
2017-10-25T22:38:40.950Z,12.90
2017-10-25T22:41:08.421Z,12.90
2017-10-25T22:43:35.877Z,12.80
2017-10-25T22:46:04.124Z,12.80
2017-10-25T22:48:31.586Z,12.80
2017-10-25T22:50:59.060Z,12.80
2017-10-25T22:53:26.524Z,12.70
2017-10-25T22:55:54.021Z,12.80
2017-10-25T22:58:21.492Z,12.70
2017-10-25T23:00:48.946Z,12.70
2017-10-25T23:03:16.384Z,12.70
2017-10-25T23:05:44.618Z,12.60
2017-10-25T23:08:12.073Z,12.60
2017-10-25T23:10:39.535Z,12.50
2017-10-25T23:13:07.754Z,12.60
2017-10-25T23:15:35.239Z,12.50
2017-10-25T23:18:02.673Z,12.50
2017-10-25T23:20:30.139Z,12.40
2017-10-25T23:22:57.616Z,12.40
2017-10-25T23:25:25.061Z,12.30
2017-10-25T23:27:52.520Z,12.30
2017-10-25T23:30:19.961Z,12.30
2017-10-25T23:32:47.568Z,12.20
2017-10-25T23:35:15.016Z,12.20
2017-10-25T23:37:42.483Z,12.20
2017-10-25T23:40:10.725Z,12.30
2017-10-25T23:42:39.153Z,12.30
2017-10-25T23:45:06.645Z,12.20
2017-10-25T23:47:34.843Z,12.10
2017-10-25T23:50:06.488Z,12.10
2017-10-25T23:52:33.999Z,12.10
2017-10-25T23:55:01.497Z,12.20
2017-10-25T23:57:29.084Z,12.10
2017-10-25T23:59:56.520Z,12.00
